Time;durP1;ratioP1;P1;durP2;ratioP2;P2;SDS_P1;SDS_P2;PMS_P1;PMS_P2;Temp;Humidity;BMP_temperature;BMP_pressure;BME280_temperature;BME280_humidity;BME280_pressure;Samples;Min_cycle;Max_cycle;Signal;HPM_P1;HPM_P2
2021/12/20 00:00:17;;;;;;;;;;;7.20;99.90;;;;;;5071010;28;19913;-68
2021/12/20 00:02:43;;;;;;;;;;;7.10;99.90;;;;;;5075003;28;19935;-69
2021/12/20 00:05:09;;;;;;;;;;;7.10;99.90;;;;;;5081837;28;19924;-70
2021/12/20 00:07:35;;;;;;;;;;;7.10;99.90;;;;;;5080331;28;19912;-69
2021/12/20 00:10:01;;;;;;;;;;;7.10;99.90;;;;;;5075153;28;19920;-69
2021/12/20 00:12:26;;;;;;;;;;;7.10;99.90;;;;;;5068273;28;19920;-69
2021/12/20 00:14:51;;;;;;;;;;;7.10;99.90;;;;;;5066562;28;19908;-69
2021/12/20 00:17:17;;;;;;;;;;;7.00;99.90;;;;;;5065687;28;20010;-70
2021/12/20 00:19:42;;;;;;;;;;;7.00;99.90;;;;;;5066205;28;19935;-69
2021/12/20 00:22:08;;;;;;;;;;;7.00;99.90;;;;;;5067637;28;19995;-71
2021/12/20 00:24:33;;;;;;;;;;;7.00;99.90;;;;;;5066932;28;19919;-70
2021/12/20 00:27:01;;;;;;;;;;;7.00;99.90;;;;;;5072333;28;20222;-70
2021/12/20 00:29:26;;;;;;;;;;;7.10;99.90;;;;;;5070621;28;19999;-70
2021/12/20 00:31:52;;;;;;;;;;;7.10;99.90;;;;;;5068680;28;19963;-70
2021/12/20 00:34:17;;;;;;;;;;;7.10;99.90;;;;;;5066021;28;19909;-69
2021/12/20 00:36:43;;;;;;;;;;;7.10;99.90;;;;;;5065801;28;19996;-70
2021/12/20 00:41:52;;;;;;;;;;;7.00;99.90;;;;;;5065601;28;19915;-71
2021/12/20 00:44:18;;;;;;;;;;;7.00;99.90;;;;;;5065300;28;19909;-69
2021/12/20 00:46:43;;;;;;;;;;;7.00;99.90;;;;;;5065162;28;19916;-69
2021/12/20 00:49:09;;;;;;;;;;;6.90;99.90;;;;;;5065296;28;19909;-70
2021/12/20 00:51:34;;;;;;;;;;;6.90;99.90;;;;;;5065412;28;20331;-69
2021/12/20 00:54:00;;;;;;;;;;;6.90;99.90;;;;;;5068676;28;19974;-69
2021/12/20 00:56:25;;;;;;;;;;;7.00;99.90;;;;;;5068563;28;19957;-69
2021/12/20 00:58:51;;;;;;;;;;;7.00;99.90;;;;;;5068335;28;19915;-69
2021/12/20 01:01:16;;;;;;;;;;;7.00;99.90;;;;;;5068560;28;19913;-68
2021/12/20 01:03:42;;;;;;;;;;;7.00;99.90;;;;;;5068565;28;20289;-69
2021/12/20 01:06:07;;;;;;;;;;;7.20;99.90;;;;;;5066649;28;19939;-69
2021/12/20 01:08:36;;;;;;;;;;;7.30;99.90;;;;;;5068513;28;19932;-69
2021/12/20 01:11:02;;;;;;;;;;;7.20;99.90;;;;;;5067520;28;20158;-64
2021/12/20 01:13:30;;;;;;;;;;;7.10;99.90;;;;;;5068197;28;19927;-68
2021/12/20 01:15:58;;;;;;;;;;;7.30;99.90;;;;;;5068657;28;20022;-68
2021/12/20 01:18:23;;;;;;;;;;;7.30;99.90;;;;;;5068347;28;20347;-68
2021/12/20 01:20:49;;;;;;;;;;;7.20;99.90;;;;;;5068083;28;19943;-68
2021/12/20 01:23:15;;;;;;;;;;;7.20;99.90;;;;;;5066081;28;19920;-67
2021/12/20 01:25:40;;;;;;;;;;;7.20;99.90;;;;;;5067407;28;20024;-67
2021/12/20 01:28:06;;;;;;;;;;;7.20;99.90;;;;;;5069192;28;19923;-67
2021/12/20 01:30:32;;;;;;;;;;;7.20;99.90;;;;;;5068435;28;20276;-67
2021/12/20 01:32:57;;;;;;;;;;;7.20;99.90;;;;;;5068440;28;19908;-68
2021/12/20 01:35:24;;;;;;;;;;;7.10;99.90;;;;;;5067884;28;20487;-65
2021/12/20 01:37:51;;;;;;;;;;;7.00;99.90;;;;;;5066966;28;19908;-65
2021/12/20 01:40:17;;;;;;;;;;;7.10;99.90;;;;;;5069618;28;19913;-68
2021/12/20 01:42:43;;;;;;;;;;;7.10;99.90;;;;;;5069608;28;20395;-66
2021/12/20 01:45:28;;;;;;;;;;;7.00;99.90;;;;;;5082211;22;19921;-69
2021/12/20 01:48:09;;;;;;;;;;;7.20;99.90;;;;;;5018951;28;19924;-69
2021/12/20 01:51:01;;;;;;;;;;;7.20;99.90;;;;;;5042002;28;19932;-67
2021/12/20 01:53:23;;;;;;;;;;;7.10;99.90;;;;;;5078316;22;20370;-62
2021/12/20 01:55:50;;;;;;;;;;;7.10;99.90;;;;;;5050630;28;20384;-60
2021/12/20 01:58:15;;;;;;;;;;;7.10;99.90;;;;;;5065656;28;19981;-60
2021/12/20 02:01:01;;;;;;;;;;;7.00;99.90;;;;;;5065433;28;20318;-61
2021/12/20 02:03:27;;;;;;;;;;;6.90;99.90;;;;;;5045871;28;19944;-60
2021/12/20 02:05:56;;;;;;;;;;;6.90;99.90;;;;;;5046210;28;19971;-61
2021/12/20 02:08:28;;;;;;;;;;;6.90;99.90;;;;;;5048827;28;19932;-62
2021/12/20 02:10:55;;;;;;;;;;;6.90;99.90;;;;;;5049023;28;19963;-60
2021/12/20 02:13:21;;;;;;;;;;;6.90;99.90;;;;;;5052130;28;20002;-61
2021/12/20 02:15:47;;;;;;;;;;;6.90;99.90;;;;;;5033752;28;19913;-61
2021/12/20 02:18:12;;;;;;;;;;;6.90;99.90;;;;;;5054547;28;19919;-60
2021/12/20 02:20:38;;;;;;;;;;;6.90;99.90;;;;;;5054238;28;19913;-61
2021/12/20 02:23:05;;;;;;;;;;;6.80;99.90;;;;;;5050968;28;20596;-61
2021/12/20 02:25:31;;;;;;;;;;;6.80;99.90;;;;;;5049931;28;19913;-61
2021/12/20 02:27:58;;;;;;;;;;;6.90;99.90;;;;;;5050695;28;19910;-61
2021/12/20 02:38:28;;;;;;;;;;;6.90;99.90;;;;;;5049404;28;19935;-61
2021/12/20 02:41:14;;;;;;;;;;;6.80;99.90;;;;;;5048992;28;20404;-62
2021/12/20 02:43:42;;;;;;;;;;;6.80;99.90;;;;;;5048441;28;19939;-61
2021/12/20 02:46:25;;;;;;;;;;;6.90;99.90;;;;;;5048719;28;19917;-60
2021/12/20 02:48:50;;;;;;;;;;;6.90;99.90;;;;;;5048858;28;19916;-59
2021/12/20 02:51:16;;;;;;;;;;;6.90;99.90;;;;;;5044138;28;19913;-60
2021/12/20 02:53:41;;;;;;;;;;;7.00;99.90;;;;;;5044006;28;19917;-61
2021/12/20 02:56:07;;;;;;;;;;;7.00;99.90;;;;;;5048297;28;19909;-61
2021/12/20 02:58:32;;;;;;;;;;;7.00;99.90;;;;;;5048695;28;19909;-61
2021/12/20 03:00:57;;;;;;;;;;;6.90;99.90;;;;;;5048437;28;19913;-61
2021/12/20 03:03:24;;;;;;;;;;;6.90;99.90;;;;;;5049626;28;19908;-62
2021/12/20 03:05:51;;;;;;;;;;;6.90;99.90;;;;;;5039482;28;19967;-61
2021/12/20 03:08:20;;;;;;;;;;;6.90;99.90;;;;;;5046424;28;19919;-61
2021/12/20 03:10:45;;;;;;;;;;;6.90;99.90;;;;;;5048097;28;19916;-61
2021/12/20 03:13:11;;;;;;;;;;;7.00;99.90;;;;;;5050942;28;20296;-60
2021/12/20 03:15:36;;;;;;;;;;;6.90;99.90;;;;;;5051155;28;19955;-61
2021/12/20 03:18:02;;;;;;;;;;;6.90;99.90;;;;;;5051405;28;19909;-60
2021/12/20 03:20:27;;;;;;;;;;;6.80;99.90;;;;;;5053031;28;19948;-61
2021/12/20 03:22:53;;;;;;;;;;;6.80;99.90;;;;;;5052787;28;20058;-60
2021/12/20 03:25:18;;;;;;;;;;;6.80;99.90;;;;;;5052513;28;19913;-60
2021/12/20 03:27:44;;;;;;;;;;;6.80;99.90;;;;;;5051645;28;20244;-62
2021/12/20 03:30:11;;;;;;;;;;;6.90;99.90;;;;;;5050097;28;19913;-61
2021/12/20 03:32:36;;;;;;;;;;;6.90;99.90;;;;;;5050324;28;19958;-61
2021/12/20 03:35:03;;;;;;;;;;;6.80;99.90;;;;;;5050941;28;19908;-59
2021/12/20 03:37:28;;;;;;;;;;;6.80;99.90;;;;;;5048785;28;19909;-60
2021/12/20 03:39:54;;;;;;;;;;;6.80;99.90;;;;;;5048007;28;19998;-60
2021/12/20 03:42:20;;;;;;;;;;;6.80;99.90;;;;;;5047870;28;19999;-61
2021/12/20 03:44:46;;;;;;;;;;;6.70;99.90;;;;;;5047609;28;19963;-61
2021/12/20 03:47:12;;;;;;;;;;;6.70;99.90;;;;;;5048057;28;19921;-60
2021/12/20 03:49:38;;;;;;;;;;;6.70;99.90;;;;;;5047279;28;19909;-62
2021/12/20 03:52:04;;;;;;;;;;;6.70;99.90;;;;;;5030123;28;19917;-60
2021/12/20 03:54:30;;;;;;;;;;;6.70;99.90;;;;;;5047673;28;20083;-60
2021/12/20 03:56:56;;;;;;;;;;;6.70;99.90;;;;;;5045476;28;19917;-60
2021/12/20 03:59:21;;;;;;;;;;;6.70;99.90;;;;;;5043074;28;19941;-60
2021/12/20 04:01:47;;;;;;;;;;;6.70;99.90;;;;;;5048099;28;19909;-61
2021/12/20 04:04:12;;;;;;;;;;;6.70;99.90;;;;;;5047534;28;19916;-61
2021/12/20 04:06:38;;;;;;;;;;;6.70;99.90;;;;;;5045598;28;19965;-60
2021/12/20 04:09:04;;;;;;;;;;;6.70;99.90;;;;;;5039629;28;20381;-61
2021/12/20 04:11:31;;;;;;;;;;;6.70;99.90;;;;;;5038708;28;19917;-60
2021/12/20 04:13:57;;;;;;;;;;;6.60;99.90;;;;;;5042273;28;19913;-60
2021/12/20 04:16:22;;;;;;;;;;;6.60;99.90;;;;;;5043074;28;19917;-60
2021/12/20 04:18:48;;;;;;;;;;;6.70;99.90;;;;;;5040330;28;20372;-61
2021/12/20 04:21:14;;;;;;;;;;;6.70;99.90;;;;;;5043109;28;19913;-61
2021/12/20 04:23:39;;;;;;;;;;;6.80;99.90;;;;;;5040442;28;20002;-61
2021/12/20 04:26:05;;;;;;;;;;;6.90;99.90;;;;;;5043640;28;19999;-60
2021/12/20 04:28:30;;;;;;;;;;;6.80;99.90;;;;;;5040993;28;19913;-61
2021/12/20 04:30:56;;;;;;;;;;;6.70;99.90;;;;;;5040053;28;20438;-60
2021/12/20 04:33:21;;;;;;;;;;;6.70;99.90;;;;;;5050717;28;20492;-61
2021/12/20 04:35:48;;;;;;;;;;;6.70;99.90;;;;;;5051077;28;20360;-60
2021/12/20 04:38:13;;;;;;;;;;;6.60;99.90;;;;;;5051055;28;19921;-61
2021/12/20 04:40:39;;;;;;;;;;;6.70;99.90;;;;;;5051793;28;19909;-60
2021/12/20 04:43:04;;;;;;;;;;;6.70;99.90;;;;;;5043678;28;20431;-60
2021/12/20 04:45:30;;;;;;;;;;;6.80;99.90;;;;;;5038433;28;19913;-60
2021/12/20 04:47:56;;;;;;;;;;;6.70;99.90;;;;;;5040707;28;19928;-61
2021/12/20 04:50:22;;;;;;;;;;;6.80;99.90;;;;;;5044491;28;19940;-60
2021/12/20 04:52:48;;;;;;;;;;;6.70;99.90;;;;;;5043811;28;19960;-60
2021/12/20 04:55:14;;;;;;;;;;;6.70;99.90;;;;;;5046315;28;19956;-60
2021/12/20 04:57:40;;;;;;;;;;;6.70;99.90;;;;;;5044011;28;19920;-59
2021/12/20 05:00:08;;;;;;;;;;;6.70;99.90;;;;;;5046970;28;20535;-60
2021/12/20 05:02:33;;;;;;;;;;;6.70;99.90;;;;;;5042529;28;19909;-60
2021/12/20 05:04:59;;;;;;;;;;;6.70;99.90;;;;;;5044446;28;19967;-60
2021/12/20 05:07:26;;;;;;;;;;;6.70;99.90;;;;;;5061162;28;19971;-60
2021/12/20 05:09:57;;;;;;;;;;;6.70;99.90;;;;;;5067147;28;19919;-60
2021/12/20 05:12:23;;;;;;;;;;;6.70;99.90;;;;;;5065293;28;19909;-61
2021/12/20 05:14:48;;;;;;;;;;;6.80;99.90;;;;;;5052640;28;19909;-61
2021/12/20 05:17:14;;;;;;;;;;;6.80;99.90;;;;;;5033858;28;20479;-61
2021/12/20 05:19:40;;;;;;;;;;;6.80;99.90;;;;;;5049804;28;19917;-61
2021/12/20 05:22:05;;;;;;;;;;;6.90;99.90;;;;;;5033689;28;19913;-61
2021/12/20 05:24:31;;;;;;;;;;;6.90;99.90;;;;;;5050348;28;20020;-60
2021/12/20 05:26:56;;;;;;;;;;;6.90;99.90;;;;;;5037284;28;19908;-60
2021/12/20 05:29:23;;;;;;;;;;;6.80;99.90;;;;;;5029933;28;20004;-61
2021/12/20 05:31:49;;;;;;;;;;;6.80;99.90;;;;;;5033924;28;19916;-59
2021/12/20 05:34:15;;;;;;;;;;;6.80;99.90;;;;;;5049921;28;20387;-60
2021/12/20 05:36:40;;;;;;;;;;;6.90;99.90;;;;;;5021424;28;19909;-61
2021/12/20 05:39:06;;;;;;;;;;;6.90;99.90;;;;;;5029993;28;19952;-61
2021/12/20 05:41:31;;;;;;;;;;;6.80;99.90;;;;;;5037141;28;19975;-61
2021/12/20 05:43:56;;;;;;;;;;;6.90;99.90;;;;;;5049429;28;19919;-61
2021/12/20 05:46:22;;;;;;;;;;;6.90;99.90;;;;;;5049700;28;20435;-59
2021/12/20 05:48:47;;;;;;;;;;;6.90;99.90;;;;;;5049741;28;20357;-60
2021/12/20 05:51:13;;;;;;;;;;;6.80;99.90;;;;;;5044870;28;20373;-59
2021/12/20 05:53:38;;;;;;;;;;;6.80;99.90;;;;;;5046811;28;19936;-61
2021/12/20 05:56:04;;;;;;;;;;;6.90;99.90;;;;;;5047369;28;19981;-60
2021/12/20 05:58:29;;;;;;;;;;;6.90;99.90;;;;;;5049247;28;19913;-61
2021/12/20 06:00:55;;;;;;;;;;;6.90;99.90;;;;;;5043269;28;19913;-60
2021/12/20 06:03:20;;;;;;;;;;;6.90;99.90;;;;;;5048784;28;19962;-61
2021/12/20 06:05:46;;;;;;;;;;;7.10;99.90;;;;;;5049176;28;19913;-60
2021/12/20 06:08:11;;;;;;;;;;;7.00;99.90;;;;;;5037185;28;19917;-61
2021/12/20 06:10:37;;;;;;;;;;;7.10;99.90;;;;;;5040000;28;20046;-60
2021/12/20 06:13:03;;;;;;;;;;;6.90;99.90;;;;;;5036687;28;19943;-60
2021/12/20 06:15:29;;;;;;;;;;;6.90;99.90;;;;;;5055643;28;20006;-60
2021/12/20 06:17:54;;;;;;;;;;;7.00;99.90;;;;;;5037628;28;19945;-62
2021/12/20 06:20:20;;;;;;;;;;;7.10;99.90;;;;;;5048933;28;19912;-60
2021/12/20 06:22:45;;;;;;;;;;;7.10;99.90;;;;;;5049506;28;19909;-60
2021/12/20 06:25:11;;;;;;;;;;;7.10;99.90;;;;;;5049231;28;19921;-61
2021/12/20 06:27:37;;;;;;;;;;;7.10;99.90;;;;;;5046177;28;19991;-61
2021/12/20 06:30:03;;;;;;;;;;;6.90;99.90;;;;;;5044143;28;19959;-60
2021/12/20 06:32:29;;;;;;;;;;;6.90;99.90;;;;;;5040896;28;19912;-62
2021/12/20 06:34:54;;;;;;;;;;;6.80;99.90;;;;;;5041024;28;19913;-61
2021/12/20 06:37:20;;;;;;;;;;;6.80;99.90;;;;;;5038179;28;19913;-60
2021/12/20 06:39:45;;;;;;;;;;;6.90;99.90;;;;;;5039336;28;19937;-60
2021/12/20 06:42:10;;;;;;;;;;;6.70;99.90;;;;;;5038399;28;19921;-60
2021/12/20 06:44:36;;;;;;;;;;;6.60;99.90;;;;;;5036256;28;19909;-60
2021/12/20 06:47:02;;;;;;;;;;;6.60;99.90;;;;;;5037605;28;20493;-61
2021/12/20 06:49:27;;;;;;;;;;;6.70;99.90;;;;;;5040392;28;19921;-60
2021/12/20 06:51:55;;;;;;;;;;;6.80;99.90;;;;;;5039227;28;19921;-61
2021/12/20 06:54:21;;;;;;;;;;;6.90;99.90;;;;;;5060205;28;19991;-62
2021/12/20 06:56:46;;;;;;;;;;;7.00;99.90;;;;;;5041789;28;20336;-62
2021/12/20 06:59:12;;;;;;;;;;;6.90;99.90;;;;;;5038243;28;19913;-61
2021/12/20 07:01:38;;;;;;;;;;;6.80;99.90;;;;;;5033120;28;19955;-61
2021/12/20 07:04:04;;;;;;;;;;;6.70;99.90;;;;;;5042743;28;19950;-61
2021/12/20 07:06:29;;;;;;;;;;;6.60;99.90;;;;;;5039415;28;20292;-61
2021/12/20 07:08:55;;;;;;;;;;;6.50;99.90;;;;;;5051275;28;19908;-61
2021/12/20 07:11:21;;;;;;;;;;;6.70;99.90;;;;;;5040793;28;19909;-62
2021/12/20 07:13:47;;;;;;;;;;;6.80;99.90;;;;;;5035730;28;19940;-61
2021/12/20 07:16:13;;;;;;;;;;;6.70;99.90;;;;;;5041195;28;20300;-60
2021/12/20 07:18:38;;;;;;;;;;;6.60;99.90;;;;;;5039423;28;20344;-60
2021/12/20 07:21:03;;;;;;;;;;;6.60;99.90;;;;;;5047800;28;19984;-61
2021/12/20 07:23:29;;;;;;;;;;;6.70;99.90;;;;;;5048651;28;20392;-60
2021/12/20 07:25:55;;;;;;;;;;;6.70;99.90;;;;;;5049562;28;19916;-60
2021/12/20 07:28:20;;;;;;;;;;;6.70;99.90;;;;;;5037291;28;19920;-63
2021/12/20 07:30:46;;;;;;;;;;;6.70;99.90;;;;;;5053481;28;20399;-61
2021/12/20 07:33:12;;;;;;;;;;;6.80;99.90;;;;;;5044792;28;20369;-61
2021/12/20 07:35:37;;;;;;;;;;;6.80;99.90;;;;;;5042862;28;19932;-61
2021/12/20 07:38:04;;;;;;;;;;;6.70;99.90;;;;;;5039815;28;19997;-62
2021/12/20 07:40:29;;;;;;;;;;;6.80;99.90;;;;;;5043964;28;20023;-61
2021/12/20 07:42:55;;;;;;;;;;;6.90;99.90;;;;;;5045030;28;20006;-61
2021/12/20 07:45:20;;;;;;;;;;;6.90;99.90;;;;;;5042200;28;19913;-62
2021/12/20 07:47:47;;;;;;;;;;;6.70;99.90;;;;;;5038223;28;19912;-61
2021/12/20 07:50:13;;;;;;;;;;;6.60;99.90;;;;;;5036999;28;19912;-61
2021/12/20 07:52:39;;;;;;;;;;;6.60;99.90;;;;;;5035659;28;19940;-61
2021/12/20 07:55:05;;;;;;;;;;;6.70;99.90;;;;;;5039874;28;19910;-61
2021/12/20 07:57:30;;;;;;;;;;;6.60;99.90;;;;;;5031814;28;19909;-61
2021/12/20 07:59:56;;;;;;;;;;;6.60;99.90;;;;;;5036643;28;19913;-62
2021/12/20 08:02:22;;;;;;;;;;;6.60;99.90;;;;;;5042328;28;19983;-60
2021/12/20 08:04:50;;;;;;;;;;;6.60;99.90;;;;;;5017695;28;20434;-61
2021/12/20 08:07:16;;;;;;;;;;;6.50;99.90;;;;;;5045772;28;19970;-63
2021/12/20 08:09:41;;;;;;;;;;;6.60;99.90;;;;;;5047557;28;19921;-62
2021/12/20 08:12:07;;;;;;;;;;;6.60;99.90;;;;;;5033177;28;20001;-61
2021/12/20 08:14:33;;;;;;;;;;;6.70;99.90;;;;;;5039082;28;19909;-61
2021/12/20 08:16:59;;;;;;;;;;;6.60;99.90;;;;;;5047210;28;19916;-61
2021/12/20 08:19:25;;;;;;;;;;;6.60;99.90;;;;;;5047526;28;19909;-62
2021/12/20 08:21:50;;;;;;;;;;;6.60;99.90;;;;;;5047140;28;20537;-61
2021/12/20 08:24:16;;;;;;;;;;;6.50;99.90;;;;;;5047797;28;20296;-61
2021/12/20 08:26:41;;;;;;;;;;;6.50;99.90;;;;;;5044338;28;19956;-61
2021/12/20 08:29:08;;;;;;;;;;;6.50;99.90;;;;;;5043900;28;19913;-60
2021/12/20 08:31:36;;;;;;;;;;;6.50;99.90;;;;;;5038739;28;20000;-60
2021/12/20 08:34:02;;;;;;;;;;;6.60;99.90;;;;;;5038206;28;19909;-61
2021/12/20 08:36:28;;;;;;;;;;;6.60;99.90;;;;;;5039314;28;19913;-60
2021/12/20 08:38:53;;;;;;;;;;;6.60;99.90;;;;;;5030949;28;20011;-61
2021/12/20 08:41:19;;;;;;;;;;;6.60;99.90;;;;;;5040018;28;19940;-61
2021/12/20 08:43:44;;;;;;;;;;;6.50;99.90;;;;;;5043978;28;20415;-60
2021/12/20 08:46:10;;;;;;;;;;;6.60;99.90;;;;;;5042227;28;20317;-61
2021/12/20 08:48:36;;;;;;;;;;;6.70;99.90;;;;;;5038889;28;19916;-60
2021/12/20 08:51:02;;;;;;;;;;;6.70;99.90;;;;;;5041425;28;19919;-61
2021/12/20 08:53:28;;;;;;;;;;;6.70;99.90;;;;;;5047609;28;19917;-61
2021/12/20 08:55:53;;;;;;;;;;;6.80;99.90;;;;;;5049295;28;19956;-61
2021/12/20 08:58:19;;;;;;;;;;;6.80;99.90;;;;;;5047027;28;19909;-60
2021/12/20 09:00:44;;;;;;;;;;;6.70;99.90;;;;;;5047382;28;19972;-61
2021/12/20 09:03:10;;;;;;;;;;;6.80;99.90;;;;;;5049759;28;20063;-61
2021/12/20 09:05:35;;;;;;;;;;;6.90;99.90;;;;;;5047316;28;19913;-61
2021/12/20 09:08:02;;;;;;;;;;;6.80;99.90;;;;;;5041743;28;20315;-61
2021/12/20 09:10:29;;;;;;;;;;;6.80;99.90;;;;;;5044597;28;20027;-61
2021/12/20 09:12:54;;;;;;;;;;;6.80;99.90;;;;;;5053965;28;19979;-61
2021/12/20 09:15:20;;;;;;;;;;;6.80;99.90;;;;;;5052717;28;19917;-61
2021/12/20 09:17:47;;;;;;;;;;;6.70;99.90;;;;;;5052519;28;19944;-60
2021/12/20 09:20:13;;;;;;;;;;;6.80;99.90;;;;;;5042020;28;19919;-61
2021/12/20 09:22:49;;;;;;;;;;;6.90;99.90;;;;;;5045699;28;20402;-60
2021/12/20 09:25:15;;;;;;;;;;;7.00;99.90;;;;;;5036410;28;19917;-60
2021/12/20 09:27:40;;;;;;;;;;;6.90;99.90;;;;;;5050469;28;20043;-61
2021/12/20 09:30:06;;;;;;;;;;;6.80;99.90;;;;;;5050227;28;20468;-60
2021/12/20 09:32:31;;;;;;;;;;;6.80;99.90;;;;;;5032105;28;19920;-63
2021/12/20 09:34:57;;;;;;;;;;;6.80;99.90;;;;;;5049886;28;19912;-61
2021/12/20 09:37:23;;;;;;;;;;;6.70;99.90;;;;;;5050182;28;19909;-61
2021/12/20 09:39:53;;;;;;;;;;;6.80;99.90;;;;;;5049621;28;19912;-61
2021/12/20 09:42:18;;;;;;;;;;;6.80;99.90;;;;;;5033882;28;19920;-62
2021/12/20 09:44:44;;;;;;;;;;;6.90;99.90;;;;;;5029937;28;19913;-61
2021/12/20 09:47:09;;;;;;;;;;;7.00;99.90;;;;;;5012380;28;19913;-63
2021/12/20 09:49:35;;;;;;;;;;;7.00;99.90;;;;;;5029917;28;20281;-62
2021/12/20 09:52:01;;;;;;;;;;;7.00;99.90;;;;;;5012317;28;20439;-61
2021/12/20 09:54:27;;;;;;;;;;;7.10;99.90;;;;;;5036335;28;20000;-61
2021/12/20 09:56:53;;;;;;;;;;;7.10;99.90;;;;;;5050160;28;19919;-61
2021/12/20 09:59:19;;;;;;;;;;;7.00;99.90;;;;;;5051979;28;20049;-60
2021/12/20 10:01:46;;;;;;;;;;;7.00;99.90;;;;;;5050668;28;20566;-61
2021/12/20 10:04:11;;;;;;;;;;;7.00;99.90;;;;;;5050690;28;19979;-60
2021/12/20 10:06:37;;;;;;;;;;;7.20;99.90;;;;;;5049533;28;19917;-61
2021/12/20 10:09:11;;;;;;;;;;;7.10;99.90;;;;;;5031422;28;19966;-61
2021/12/20 10:11:37;;;;;;;;;;;7.20;99.90;;;;;;5031567;28;20011;-61
2021/12/20 10:14:07;;;;;;;;;;;7.20;99.90;;;;;;5049974;28;19996;-61
2021/12/20 10:16:34;;;;;;;;;;;7.20;99.90;;;;;;5049466;28;19913;-61
2021/12/20 10:19:00;;;;;;;;;;;7.20;99.90;;;;;;5049195;28;20008;-63
2021/12/20 10:21:34;;;;;;;;;;;7.30;99.90;;;;;;5049241;28;20304;-62
2021/12/20 10:24:00;;;;;;;;;;;7.20;99.90;;;;;;5049117;28;19985;-60
2021/12/20 10:26:25;;;;;;;;;;;7.30;99.90;;;;;;5048932;28;20354;-61
2021/12/20 10:28:52;;;;;;;;;;;7.20;99.90;;;;;;5049059;28;19909;-61
2021/12/20 10:31:19;;;;;;;;;;;7.20;99.90;;;;;;5049134;28;19962;-61
2021/12/20 10:33:58;;;;;;;;;;;7.30;99.90;;;;;;5049003;28;19912;-60
2021/12/20 10:36:24;;;;;;;;;;;7.30;99.90;;;;;;5048913;28;20517;-61
2021/12/20 10:38:56;;;;;;;;;;;7.20;99.90;;;;;;5049463;28;20058;-60
2021/12/20 10:41:36;;;;;;;;;;;7.30;99.90;;;;;;5048976;28;19955;-61
2021/12/20 10:44:15;;;;;;;;;;;7.20;99.90;;;;;;5049301;28;19965;-61
2021/12/20 10:46:54;;;;;;;;;;;7.20;99.90;;;;;;5049834;28;20376;-62
2021/12/20 10:49:25;;;;;;;;;;;7.40;99.90;;;;;;5049739;28;19908;-61
2021/12/20 10:51:51;;;;;;;;;;;7.50;99.90;;;;;;5049808;28;19917;-62
2021/12/20 10:54:19;;;;;;;;;;;7.50;99.90;;;;;;5064831;28;19909;-61
2021/12/20 10:56:47;;;;;;;;;;;7.50;99.90;;;;;;5049814;28;19961;-61
2021/12/20 10:59:12;;;;;;;;;;;7.40;99.90;;;;;;5049002;28;19955;-62
2021/12/20 11:04:26;;;;;;;;;;;7.20;99.90;;;;;;5047931;28;19970;-60
2021/12/20 11:09:04;;;;;;;;;;;7.30;99.90;;;;;;5048547;28;19913;-61
2021/12/20 11:09:46;;;;;;;;;;;7.40;99.90;;;;;;5048285;28;19991;-61
2021/12/20 11:12:13;;;;;;;;;;;7.30;99.90;;;;;;5050704;28;19912;-61
2021/12/20 11:14:40;;;;;;;;;;;7.10;99.90;;;;;;5053315;28;20355;-62
2021/12/20 11:17:07;;;;;;;;;;;7.00;99.90;;;;;;5050101;28;19909;-63
2021/12/20 11:19:40;;;;;;;;;;;7.00;99.90;;;;;;5048443;28;19988;-61
2021/12/20 11:22:10;;;;;;;;;;;7.00;99.90;;;;;;5048662;28;19917;-61
2021/12/20 11:24:40;;;;;;;;;;;6.90;99.90;;;;;;5048747;28;19912;-63
2021/12/20 11:27:09;;;;;;;;;;;6.90;99.90;;;;;;5048510;28;19966;-60
2021/12/20 11:29:35;;;;;;;;;;;6.80;99.90;;;;;;5047911;28;19936;-61
2021/12/20 11:32:01;;;;;;;;;;;6.80;99.90;;;;;;5048235;28;19916;-61
2021/12/20 11:34:26;;;;;;;;;;;6.90;99.90;;;;;;5048751;28;19913;-60
2021/12/20 11:36:53;;;;;;;;;;;7.10;99.90;;;;;;5048120;28;19916;-61
2021/12/20 11:39:18;;;;;;;;;;;7.10;99.90;;;;;;5048331;28;19909;-61
2021/12/20 11:41:44;;;;;;;;;;;6.90;99.90;;;;;;5048200;28;19916;-62
2021/12/20 11:44:12;;;;;;;;;;;7.00;99.90;;;;;;5048468;28;19913;-61
2021/12/20 11:46:44;;;;;;;;;;;7.10;99.90;;;;;;5048031;28;20000;-60
2021/12/20 11:49:09;;;;;;;;;;;7.10;99.90;;;;;;5047575;28;19909;-61
2021/12/20 11:51:53;;;;;;;;;;;7.00;99.90;;;;;;5048353;28;20007;-61
2021/12/20 11:54:37;;;;;;;;;;;7.20;99.90;;;;;;5048029;28;20007;-60
2021/12/20 11:57:03;;;;;;;;;;;7.10;99.90;;;;;;5048511;28;19917;-61
2021/12/20 11:59:48;;;;;;;;;;;6.90;99.90;;;;;;5048004;28;19913;-60
2021/12/20 12:02:28;;;;;;;;;;;6.90;99.90;;;;;;5047603;28;19920;-60
2021/12/20 12:04:56;;;;;;;;;;;7.10;99.90;;;;;;5047720;28;20417;-61
2021/12/20 12:07:23;;;;;;;;;;;7.20;99.90;;;;;;5049680;28;19916;-61
2021/12/20 12:09:55;;;;;;;;;;;7.30;99.90;;;;;;5047993;28;19909;-61
2021/12/20 12:12:25;;;;;;;;;;;7.30;99.90;;;;;;5048098;28;19913;-61
2021/12/20 12:15:03;;;;;;;;;;;7.30;99.90;;;;;;5047791;28;20003;-60
2021/12/20 12:17:48;;;;;;;;;;;7.20;99.90;;;;;;5047788;28;20272;-61
2021/12/20 12:20:14;;;;;;;;;;;7.10;99.90;;;;;;5047022;28;19921;-61
2021/12/20 12:22:40;;;;;;;;;;;7.30;99.90;;;;;;5047851;28;19966;-61
2021/12/20 12:25:26;;;;;;;;;;;7.20;99.90;;;;;;5047327;28;19959;-62
2021/12/20 12:27:56;;;;;;;;;;;7.00;99.90;;;;;;5047152;28;19916;-62
2021/12/20 12:30:27;;;;;;;;;;;7.00;99.90;;;;;;5030193;28;20545;-60
2021/12/20 12:32:54;;;;;;;;;;;7.10;99.90;;;;;;5049701;28;19951;-61
2021/12/20 12:35:39;;;;;;;;;;;7.10;99.90;;;;;;5049189;28;19916;-62
2021/12/20 12:38:10;;;;;;;;;;;7.10;99.90;;;;;;5030152;28;19915;-61
2021/12/20 12:40:36;;;;;;;;;;;7.10;99.90;;;;;;5048055;28;20386;-61
2021/12/20 12:43:02;;;;;;;;;;;7.00;99.90;;;;;;5048120;28;19909;-64
2021/12/20 12:45:46;;;;;;;;;;;7.00;99.90;;;;;;5047974;28;20376;-61
2021/12/20 12:48:30;;;;;;;;;;;6.90;99.90;;;;;;5049959;28;19931;-60
2021/12/20 12:50:55;;;;;;;;;;;7.00;99.90;;;;;;5051317;28;19909;-61
2021/12/20 12:53:37;;;;;;;;;;;7.00;99.90;;;;;;5059844;28;19932;-61
2021/12/20 12:56:21;;;;;;;;;;;7.00;99.90;;;;;;5060085;28;19924;-61
2021/12/20 12:59:07;;;;;;;;;;;7.00;99.90;;;;;;5058053;28;19951;-61
2021/12/20 13:01:32;;;;;;;;;;;7.00;99.90;;;;;;5050677;28;19964;-62
2021/12/20 13:03:58;;;;;;;;;;;7.00;99.90;;;;;;5041513;28;20083;-61
2021/12/20 13:06:24;;;;;;;;;;;7.10;99.90;;;;;;5036629;28;19989;-61
2021/12/20 13:08:51;;;;;;;;;;;7.20;99.90;;;;;;5054475;28;19940;-62
2021/12/20 13:11:21;;;;;;;;;;;7.10;99.90;;;;;;5054918;28;19908;-62
2021/12/20 13:13:54;;;;;;;;;;;7.10;99.90;;;;;;5045181;28;19920;-61
2021/12/20 13:16:25;;;;;;;;;;;7.20;99.90;;;;;;5055105;28;19916;-62
2021/12/20 13:18:52;;;;;;;;;;;7.20;99.90;;;;;;5054566;28;19962;-61
2021/12/20 13:21:25;;;;;;;;;;;7.10;99.90;;;;;;5054320;28;19913;-61
2021/12/20 13:23:50;;;;;;;;;;;7.00;99.90;;;;;;5048715;28;19990;-62
2021/12/20 13:26:22;;;;;;;;;;;6.90;99.90;;;;;;5045224;28;20355;-61
2021/12/20 13:28:49;;;;;;;;;;;6.90;99.90;;;;;;5046533;28;20451;-60
2021/12/20 13:31:14;;;;;;;;;;;7.00;99.90;;;;;;5043493;28;19920;-60
2021/12/20 13:33:41;;;;;;;;;;;6.90;99.90;;;;;;5043489;28;19925;-63
2021/12/20 13:36:09;;;;;;;;;;;6.90;99.90;;;;;;5042167;28;19974;-61
2021/12/20 13:38:36;;;;;;;;;;;7.00;99.90;;;;;;5041831;28;19914;-62
2021/12/20 13:41:09;;;;;;;;;;;6.90;99.90;;;;;;5030420;28;19909;-62
2021/12/20 13:43:40;;;;;;;;;;;6.90;99.90;;;;;;5041958;28;20611;-61
2021/12/20 13:46:12;;;;;;;;;;;6.90;99.90;;;;;;5036114;28;19913;-62
2021/12/20 13:48:48;;;;;;;;;;;6.90;99.90;;;;;;5027751;28;20065;-61
2021/12/20 13:51:13;;;;;;;;;;;6.90;99.90;;;;;;5047650;28;20328;-60
2021/12/20 13:53:39;;;;;;;;;;;6.70;99.90;;;;;;5047971;28;19919;-62
2021/12/20 13:56:04;;;;;;;;;;;6.70;99.90;;;;;;5046714;28;19944;-63
2021/12/20 13:58:30;;;;;;;;;;;6.80;99.90;;;;;;5046318;28;19920;-61
2021/12/20 14:00:56;;;;;;;;;;;6.90;99.90;;;;;;5046559;28;19909;-61
2021/12/20 14:03:22;;;;;;;;;;;6.80;99.90;;;;;;5048797;28;19966;-62
2021/12/20 14:05:48;;;;;;;;;;;6.90;99.90;;;;;;5051736;28;19917;-62
2021/12/20 14:08:15;;;;;;;;;;;7.00;99.90;;;;;;5051279;28;19913;-62
2021/12/20 14:10:41;;;;;;;;;;;7.10;99.90;;;;;;5044792;28;19951;-62
2021/12/20 14:13:08;;;;;;;;;;;6.90;99.90;;;;;;5044045;28;19909;-61
2021/12/20 14:15:44;;;;;;;;;;;6.90;99.90;;;;;;5042394;28;19916;-62
2021/12/20 14:18:16;;;;;;;;;;;7.00;99.90;;;;;;5041790;28;20000;-63
2021/12/20 14:20:49;;;;;;;;;;;7.10;99.90;;;;;;5043945;28;20509;-63
2021/12/20 14:23:29;;;;;;;;;;;7.10;99.70;;;;;;5037629;28;19913;-61
2021/12/20 14:26:03;;;;;;;;;;;7.00;99.80;;;;;;5044693;28;19920;-62
2021/12/20 14:28:30;;;;;;;;;;;6.90;99.10;;;;;;5040325;28;20377;-62
2021/12/20 14:31:02;;;;;;;;;;;7.00;99.50;;;;;;5045390;28;19952;-62
2021/12/20 14:33:29;;;;;;;;;;;7.00;99.10;;;;;;5038652;28;19913;-61
2021/12/20 14:35:54;;;;;;;;;;;7.10;99.40;;;;;;5044778;28;20003;-62
2021/12/20 14:38:28;;;;;;;;;;;7.10;99.20;;;;;;5037594;28;19965;-63
2021/12/20 14:40:53;;;;;;;;;;;7.00;98.70;;;;;;5038521;28;19927;-62
2021/12/20 14:43:20;;;;;;;;;;;6.90;99.20;;;;;;5051004;28;19909;-62
2021/12/20 14:45:47;;;;;;;;;;;6.80;99.40;;;;;;5043044;28;19917;-63